Time;durP1;ratioP1;P1;durP2;ratioP2;P2;SDS_P1;SDS_P2;PMS_P1;PMS_P2;Temp;Humidity;BMP_temperature;BMP_pressure;BME280_temperature;BME280_humidity;BME280_pressure;Samples;Min_cycle;Max_cycle;Signal;HPM_P1;HPM_P2
2022/01/28 00:02:11;;;;;;;8.63;2.03;;;5.70;99.90;;;;;;4985992;28;20777;-78
2022/01/28 00:04:37;;;;;;;12.80;4.37;;;5.70;99.90;;;;;;4983942;28;20204;-73
2022/01/28 00:07:02;;;;;;;14.93;3.10;;;5.70;99.90;;;;;;4988145;28;20253;-70
2022/01/28 00:09:28;;;;;;;13.57;2.73;;;5.90;99.90;;;;;;5002617;28;20558;-79
2022/01/28 00:11:54;;;;;;;8.03;1.93;;;6.00;99.90;;;;;;4992334;28;20209;-80
2022/01/28 00:14:36;;;;;;;7.17;2.20;;;6.00;99.90;;;;;;4992305;28;20197;-79
2022/01/28 00:38:47;;;;;;;14.70;2.97;;;5.90;99.90;;;;;;4987829;28;20773;-72
2022/01/28 00:41:13;;;;;;;9.20;3.07;;;5.80;99.90;;;;;;4986967;28;20228;-73
2022/01/28 00:43:39;;;;;;;7.70;2.50;;;5.80;99.90;;;;;;4989912;28;20232;-72
2022/01/28 00:46:04;;;;;;;8.87;2.07;;;5.90;99.90;;;;;;4985848;28;20232;-72
2022/01/28 00:48:30;;;;;;;10.03;3.67;;;5.90;99.90;;;;;;4987914;28;20199;-74
2022/01/28 00:50:55;;;;;;;13.10;2.73;;;5.90;99.90;;;;;;4981297;28;20254;-73
2022/01/28 00:53:21;;;;;;;14.00;2.37;;;5.90;99.90;;;;;;4984638;28;20201;-73
2022/01/28 00:55:46;;;;;;;12.30;2.90;;;5.90;99.90;;;;;;4989802;28;20750;-72
2022/01/28 00:58:12;;;;;;;6.73;2.50;;;5.80;99.90;;;;;;4989326;28;20197;-73
2022/01/28 01:00:38;;;;;;;8.57;2.40;;;5.80;99.90;;;;;;4985095;28;20212;-72
2022/01/28 01:03:03;;;;;;;9.73;3.60;;;5.80;99.90;;;;;;4991074;28;20581;-72
2022/01/28 01:05:32;;;;;;;11.87;2.97;;;5.80;99.90;;;;;;5022994;28;20225;-72
2022/01/28 01:07:58;;;;;;;9.13;3.03;;;6.00;99.90;;;;;;5027090;28;20574;-77
2022/01/28 01:10:25;;;;;;;7.60;2.37;;;6.00;99.90;;;;;;4992452;28;20711;-77
2022/01/28 01:12:51;;;;;;;8.90;2.40;;;5.90;99.90;;;;;;4997845;28;20196;-79
2022/01/28 01:15:21;;;;;;;6.23;2.40;;;6.00;99.90;;;;;;4987476;28;20572;-77
2022/01/28 01:18:16;;;;;;;7.87;2.30;;;5.90;99.90;;;;;;4990577;28;20193;-81
2022/01/28 01:25:28;;;;;;;11.03;2.27;;;5.80;99.90;;;;;;4994136;28;20208;-81
2022/01/28 01:27:56;;;;;;;17.67;3.93;;;5.80;99.90;;;;;;4994851;28;20187;-79
2022/01/28 01:30:22;;;;;;;7.40;2.77;;;5.80;99.90;;;;;;4979449;28;20210;-76
2022/01/28 01:32:48;;;;;;;12.10;3.03;;;5.70;99.90;;;;;;4993999;28;20543;-79
2022/01/28 01:35:14;;;;;;;16.07;2.90;;;5.80;99.90;;;;;;4990623;28;20205;-77
2022/01/28 01:37:39;;;;;;;12.27;3.80;;;5.70;99.90;;;;;;4995840;28;20264;-81
2022/01/28 01:40:06;;;;;;;7.53;1.87;;;5.70;99.90;;;;;;4982952;28;20203;-77
2022/01/28 01:45:46;;;;;;;12.00;2.80;;;5.70;99.90;;;;;;4981426;28;20609;-80
2022/01/28 01:53:29;;;;;;;9.70;3.13;;;5.70;99.90;;;;;;4986898;28;20192;-72
2022/01/28 01:55:56;;;;;;;14.07;2.97;;;5.70;99.90;;;;;;4987013;28;20208;-72
2022/01/28 01:58:29;;;;;;;13.43;3.57;;;5.60;99.90;;;;;;4989128;28;20296;-72
2022/01/28 02:00:55;;;;;;;8.87;2.97;;;5.50;99.90;;;;;;5018054;28;20221;-74
2022/01/28 02:03:20;;;;;;;14.33;3.23;;;5.40;99.90;;;;;;4993340;28;20664;-72
2022/01/28 02:05:46;;;;;;;11.83;2.80;;;5.40;99.90;;;;;;4987192;28;20212;-71
2022/01/28 02:08:11;;;;;;;10.20;2.03;;;5.30;99.90;;;;;;4989539;28;20200;-74
2022/01/28 02:10:37;;;;;;;19.57;2.70;;;5.40;99.90;;;;;;4987883;28;20262;-72
2022/01/28 02:13:02;;;;;;;12.73;3.10;;;5.40;99.90;;;;;;4990712;28;20189;-71
2022/01/28 02:15:28;;;;;;;13.10;3.90;;;5.40;99.90;;;;;;4987073;28;20748;-72
2022/01/28 02:17:53;;;;;;;12.50;3.00;;;5.40;99.90;;;;;;4990547;28;20172;-71
2022/01/28 02:20:25;;;;;;;8.70;3.10;;;5.40;99.90;;;;;;4981889;28;20250;-73
2022/01/28 02:22:53;;;;;;;11.20;2.83;;;5.50;99.90;;;;;;4992929;28;20319;-74
2022/01/28 02:25:32;;;;;;;16.33;3.47;;;5.40;99.90;;;;;;4995053;28;20267;-76
2022/01/28 02:28:03;;;;;;;13.03;2.70;;;5.40;99.90;;;;;;5001230;28;20222;-73
2022/01/28 02:30:30;;;;;;;6.77;2.17;;;5.40;99.90;;;;;;4986682;28;20193;-74
2022/01/28 02:33:10;;;;;;;8.63;2.50;;;5.50;99.90;;;;;;4986640;28;20181;-74
2022/01/28 02:35:37;;;;;;;11.83;2.87;;;5.40;99.90;;;;;;4983599;28;20685;-76
2022/01/28 02:38:03;;;;;;;10.87;3.37;;;5.40;99.90;;;;;;4992809;28;20673;-75
2022/01/28 02:40:29;;;;;;;13.87;2.63;;;5.40;99.90;;;;;;5009847;28;20221;-73
2022/01/28 02:43:03;;;;;;;10.60;2.73;;;5.40;99.90;;;;;;4995299;28;20238;-73
2022/01/28 02:45:35;;;;;;;14.27;3.00;;;5.40;99.90;;;;;;4985831;28;20196;-72
2022/01/28 02:48:04;;;;;;;16.57;2.73;;;5.40;99.90;;;;;;4990080;28;20647;-75
2022/01/28 02:50:38;;;;;;;11.73;3.40;;;5.20;99.90;;;;;;4988436;28;20207;-75
2022/01/28 02:53:08;;;;;;;12.50;3.00;;;5.20;99.90;;;;;;4987354;28;20204;-73
2022/01/28 02:55:38;;;;;;;11.00;3.27;;;5.20;99.90;;;;;;4985377;28;20224;-77
2022/01/28 02:58:22;;;;;;;11.83;2.73;;;5.00;99.90;;;;;;4984993;28;20195;-74
2022/01/28 03:00:49;;;;;;;17.10;3.30;;;4.90;99.90;;;;;;5008559;28;20215;-75
2022/01/28 03:03:18;;;;;;;9.70;3.27;;;4.90;99.90;;;;;;4989554;28;20955;-75
2022/01/28 03:05:47;;;;;;;10.60;2.50;;;4.90;99.90;;;;;;4983917;28;20236;-74
2022/01/28 03:08:13;;;;;;;16.07;3.03;;;5.00;99.90;;;;;;4991973;28;20202;-74
2022/01/28 03:11:02;;;;;;;14.73;2.77;;;5.10;99.90;;;;;;4981747;28;20563;-77
2022/01/28 03:15:55;;;;;;;14.87;4.07;;;5.20;99.90;;;;;;4992083;28;20730;-71
2022/01/28 03:18:28;;;;;;;19.37;2.93;;;5.20;99.90;;;;;;4991832;28;20333;-70
2022/01/28 03:23:19;;;;;;;5.97;1.97;;;5.20;99.90;;;;;;4991645;28;20730;-71
2022/01/28 03:25:47;;;;;;;9.63;2.20;;;5.30;99.90;;;;;;4990792;28;20204;-70
2022/01/28 03:28:14;;;;;;;15.33;4.97;;;5.30;99.90;;;;;;4994003;28;20189;-71
2022/01/28 03:30:40;;;;;;;10.77;2.73;;;5.30;99.90;;;;;;4989872;28;20683;-71
2022/01/28 03:33:05;;;;;;;10.07;3.07;;;5.30;99.90;;;;;;4991201;28;20218;-71
2022/01/28 03:35:34;;;;;;;17.03;3.43;;;5.30;99.90;;;;;;4992882;28;20211;-71
2022/01/28 03:38:01;;;;;;;13.37;3.07;;;5.30;99.90;;;;;;4990253;28;20208;-71
2022/01/28 03:40:33;;;;;;;12.50;3.73;;;5.30;99.90;;;;;;4989348;28;20315;-71
2022/01/28 03:42:59;;;;;;;10.97;2.83;;;5.30;99.90;;;;;;4990278;28;20754;-72
2022/01/28 03:45:24;;;;;;;13.83;3.53;;;5.30;99.90;;;;;;4993805;28;20553;-71
2022/01/28 03:47:50;;;;;;;11.07;3.37;;;5.40;99.90;;;;;;4992906;28;20205;-70
2022/01/28 03:50:15;;;;;;;12.57;3.80;;;5.40;99.90;;;;;;4995120;28;20315;-71
2022/01/28 03:52:41;;;;;;;13.03;3.00;;;5.40;99.90;;;;;;4993812;28;20585;-70
2022/01/28 03:55:07;;;;;;;13.97;2.60;;;5.40;99.90;;;;;;4993233;28;20200;-69
2022/01/28 03:57:32;;;;;;;9.70;3.53;;;5.40;99.90;;;;;;4990657;28;20200;-70
2022/01/28 03:59:58;;;;;;;8.90;3.13;;;5.50;99.90;;;;;;4992062;28;20196;-70
2022/01/28 04:02:27;;;;;;;8.07;2.13;;;5.50;99.90;;;;;;4991038;28;20686;-70
2022/01/28 04:12:51;;;;;;;8.27;3.13;;;5.50;99.90;;;;;;4986614;28;20267;-68
2022/01/28 04:15:36;;;;;;;12.40;2.53;;;5.40;99.90;;;;;;4996698;28;20193;-65
2022/01/28 04:18:02;;;;;;;11.47;3.30;;;5.50;99.90;;;;;;4991457;28;20205;-64
2022/01/28 04:20:30;;;;;;;16.13;2.93;;;5.50;99.90;;;;;;4993779;28;20561;-64
2022/01/28 04:22:56;;;;;;;12.60;2.47;;;5.40;99.90;;;;;;4991708;28;20220;-64
2022/01/28 04:25:22;;;;;;;10.10;2.30;;;5.40;99.90;;;;;;4994683;28;20177;-64
2022/01/28 04:27:53;;;;;;;14.93;3.00;;;5.50;99.90;;;;;;4989981;28;20197;-64
2022/01/28 04:30:18;;;;;;;9.90;2.50;;;5.50;99.90;;;;;;4992943;28;20188;-64
2022/01/28 04:32:46;;;;;;;15.13;3.47;;;5.50;99.90;;;;;;4991855;28;20250;-66
2022/01/28 04:35:12;;;;;;;9.77;2.47;;;5.50;99.90;;;;;;4993853;28;20251;-64
2022/01/28 04:38:04;;;;;;;13.57;2.17;;;5.50;99.90;;;;;;4991708;28;20306;-65
2022/01/28 04:40:34;;;;;;;6.77;2.47;;;5.50;99.90;;;;;;4988782;28;20313;-66
2022/01/28 04:43:14;;;;;;;11.13;3.17;;;5.50;99.90;;;;;;4991943;28;20364;-65
2022/01/28 04:45:54;;;;;;;11.63;2.20;;;5.60;99.90;;;;;;4991464;28;20188;-65
2022/01/28 04:48:28;;;;;;;10.20;2.80;;;5.50;99.90;;;;;;4992282;28;20211;-65
2022/01/28 04:54:40;;;;;;;16.93;3.17;;;5.50;99.90;;;;;;4987806;28;20200;-66
2022/01/28 05:04:35;;;;;;;13.33;3.37;;;5.60;99.90;;;;;;4997494;28;20851;-63
2022/01/28 05:07:32;;;;;;;11.77;2.97;;;5.60;99.90;;;;;;4997211;28;20188;-65
2022/01/28 05:28:42;;;;;;;18.43;3.83;;;5.50;99.90;;;;;;4997220;28;20206;-64
2022/01/28 05:31:08;;;;;;;18.10;3.33;;;5.60;99.90;;;;;;5000105;28;20211;-64
2022/01/28 05:33:33;;;;;;;14.00;4.03;;;5.60;99.90;;;;;;4990119;28;20208;-64
2022/01/28 05:35:59;;;;;;;15.60;3.10;;;5.60;99.90;;;;;;4997144;28;20314;-64
2022/01/28 05:38:24;;;;;;;8.80;2.47;;;5.60;99.90;;;;;;4992430;28;20193;-63
2022/01/28 05:40:50;;;;;;;9.57;2.57;;;5.70;99.90;;;;;;4994883;28;21054;-63
2022/01/28 05:43:15;;;;;;;14.80;2.87;;;5.60;99.90;;;;;;4995737;28;20196;-64
2022/01/28 05:45:41;;;;;;;8.03;3.13;;;5.70;99.90;;;;;;4990717;28;20176;-64
2022/01/28 05:48:07;;;;;;;9.00;3.10;;;5.60;99.90;;;;;;4992866;28;20296;-64
2022/01/28 05:50:33;;;;;;;7.73;2.43;;;5.60;99.90;;;;;;5003067;28;20268;-64
2022/01/28 05:53:01;;;;;;;8.67;1.77;;;5.60;99.90;;;;;;4986715;28;20204;-64
2022/01/28 05:55:26;;;;;;;11.63;3.27;;;5.70;99.90;;;;;;4993532;28;20188;-66
2022/01/28 05:57:52;;;;;;;14.53;3.50;;;5.70;99.90;;;;;;4985445;28;20743;-65
2022/01/28 06:00:18;;;;;;;16.80;2.90;;;5.60;99.90;;;;;;5000826;28;20201;-66
2022/01/28 06:02:45;;;;;;;13.63;3.73;;;5.70;99.90;;;;;;4988417;28;20674;-65
2022/01/28 06:05:10;;;;;;;10.97;2.73;;;5.60;99.90;;;;;;4996001;28;20188;-65
2022/01/28 06:07:41;;;;;;;13.40;4.00;;;5.60;99.90;;;;;;4990159;28;20690;-65
2022/01/28 06:10:11;;;;;;;17.70;3.47;;;5.60;99.90;;;;;;4993870;28;20303;-65
2022/01/28 06:12:41;;;;;;;6.20;2.63;;;5.50;99.90;;;;;;4998790;28;20192;-65
2022/01/28 06:15:08;;;;;;;10.10;2.43;;;5.50;99.90;;;;;;4981938;28;20429;-65
2022/01/28 06:17:34;;;;;;;17.13;3.47;;;5.60;99.90;;;;;;4988938;28;20200;-64
2022/01/28 06:20:00;;;;;;;12.57;3.53;;;5.60;99.90;;;;;;4982851;28;20850;-65
2022/01/28 06:22:25;;;;;;;8.80;2.80;;;5.60;99.90;;;;;;4992281;28;20306;-65
2022/01/28 06:24:51;;;;;;;6.37;2.47;;;5.50;99.90;;;;;;4991650;28;20397;-65
2022/01/28 06:27:16;;;;;;;7.43;2.43;;;5.50;99.90;;;;;;4984083;28;20200;-64
2022/01/28 06:29:42;;;;;;;16.17;2.90;;;5.60;99.90;;;;;;4981739;28;20201;-65
2022/01/28 06:32:08;;;;;;;13.83;2.90;;;5.60;99.90;;;;;;4985371;28;20492;-64
2022/01/28 06:34:34;;;;;;;11.07;2.43;;;5.60;99.90;;;;;;4991376;28;20196;-64
2022/01/28 06:36:59;;;;;;;16.53;3.07;;;5.60;99.90;;;;;;5000349;28;20219;-64
2022/01/28 06:39:25;;;;;;;17.33;3.47;;;5.60;99.90;;;;;;4991778;28;20200;-65
2022/01/28 06:41:50;;;;;;;11.50;3.10;;;5.60;99.90;;;;;;4988267;28;20225;-64
2022/01/28 06:44:16;;;;;;;17.43;3.00;;;5.60;99.90;;;;;;4983235;28;20197;-64
2022/01/28 06:46:41;;;;;;;14.00;2.60;;;5.60;99.90;;;;;;4983900;28;20200;-64
2022/01/28 06:49:06;;;;;;;18.27;4.00;;;5.50;99.90;;;;;;4989779;28;20726;-65
2022/01/28 06:51:34;;;;;;;11.27;4.70;;;5.50;99.90;;;;;;4990149;28;20209;-65
2022/01/28 06:54:00;;;;;;;14.73;3.50;;;5.40;99.90;;;;;;4991111;28;20227;-64
2022/01/28 06:56:25;;;;;;;14.50;3.43;;;5.40;99.90;;;;;;4989555;28;20212;-65
2022/01/28 06:58:51;;;;;;;15.27;3.20;;;5.40;99.90;;;;;;4995795;28;20291;-65
2022/01/28 07:01:16;;;;;;;16.63;3.30;;;5.50;99.90;;;;;;4989143;28;20223;-64
2022/01/28 07:03:42;;;;;;;11.80;3.13;;;5.50;99.90;;;;;;4984147;28;20204;-64
2022/01/28 07:06:07;;;;;;;13.87;3.50;;;5.50;99.90;;;;;;4993575;28;20216;-63
2022/01/28 07:08:33;;;;;;;12.30;2.53;;;5.50;99.90;;;;;;4991597;28;20610;-64
2022/01/28 07:10:58;;;;;;;17.90;3.47;;;5.50;99.90;;;;;;4981327;28;20204;-64
2022/01/28 07:13:24;;;;;;;7.37;2.70;;;5.50;99.90;;;;;;4991191;28;20227;-65
2022/01/28 07:15:51;;;;;;;7.53;2.73;;;5.40;99.90;;;;;;4985290;28;20208;-65
2022/01/28 07:18:17;;;;;;;13.03;3.63;;;5.40;99.90;;;;;;4993010;28;20210;-65
2022/01/28 07:20:42;;;;;;;14.37;4.23;;;5.50;99.90;;;;;;4994947;28;20209;-65
2022/01/28 07:23:08;;;;;;;12.03;3.00;;;5.40;99.90;;;;;;4994474;28;20215;-65
2022/01/28 07:25:33;;;;;;;13.73;3.30;;;5.40;99.90;;;;;;4993933;28;20200;-65
2022/01/28 07:27:59;;;;;;;16.57;3.10;;;5.30;99.90;;;;;;4999548;28;20566;-64
2022/01/28 07:30:25;;;;;;;7.77;2.63;;;5.20;99.90;;;;;;4992307;28;20311;-65
2022/01/28 07:32:51;;;;;;;11.47;3.43;;;5.20;99.90;;;;;;4989804;28;20204;-65
2022/01/28 07:35:17;;;;;;;13.70;4.83;;;5.20;99.90;;;;;;4991779;28;20619;-66
2022/01/28 07:37:43;;;;;;;10.90;2.80;;;5.20;99.90;;;;;;4993548;28;20212;-64
2022/01/28 07:40:09;;;;;;;11.17;2.90;;;5.10;99.90;;;;;;4996582;28;20240;-64
2022/01/28 07:42:37;;;;;;;13.40;3.80;;;5.10;99.90;;;;;;4999779;28;20216;-63
2022/01/28 07:45:04;;;;;;;13.40;3.80;;;5.10;99.90;;;;;;5001212;28;20621;-63
2022/01/28 07:47:29;;;;;;;14.43;3.00;;;5.00;99.90;;;;;;4996796;28;20279;-63
2022/01/28 07:49:55;;;;;;;11.40;2.83;;;5.00;99.90;;;;;;4978779;28;20589;-64
2022/01/28 07:52:20;;;;;;;16.57;3.53;;;5.10;99.90;;;;;;4989634;28;20185;-63
2022/01/28 07:54:49;;;;;;;10.33;3.20;;;5.00;99.90;;;;;;4991563;28;20693;-63
2022/01/28 07:57:15;;;;;;;11.07;2.60;;;4.90;99.90;;;;;;4995000;28;20224;-64
2022/01/28 07:59:40;;;;;;;9.23;3.10;;;4.90;99.90;;;;;;4995938;28;20242;-64
2022/01/28 08:02:07;;;;;;;13.47;3.37;;;4.80;99.90;;;;;;4998881;28;20618;-64
2022/01/28 08:04:32;;;;;;;14.67;3.30;;;4.80;99.90;;;;;;4994896;28;20220;-64
2022/01/28 08:06:58;;;;;;;16.83;3.57;;;4.80;99.90;;;;;;4992743;28;20177;-64
2022/01/28 08:09:23;;;;;;;14.57;3.43;;;4.80;99.90;;;;;;4996323;28;20201;-64
2022/01/28 08:11:49;;;;;;;14.83;3.33;;;4.80;99.90;;;;;;4998245;28;20284;-63
2022/01/28 08:14:14;;;;;;;16.33;2.93;;;4.80;99.90;;;;;;4993368;28;20544;-64
2022/01/28 08:16:40;;;;;;;14.53;3.17;;;4.80;99.90;;;;;;4994414;28;20208;-64
2022/01/28 08:19:06;;;;;;;19.93;4.33;;;4.80;99.90;;;;;;4998191;28;20512;-64
2022/01/28 08:21:31;;;;;;;17.80;4.57;;;4.80;99.90;;;;;;4995316;28;20758;-64
2022/01/28 08:23:57;;;;;;;14.40;4.20;;;4.80;99.90;;;;;;4986507;28;20228;-63
2022/01/28 08:26:23;;;;;;;14.47;3.97;;;4.80;99.90;;;;;;4992268;28;20592;-64
2022/01/28 08:28:48;;;;;;;10.23;3.60;;;4.90;99.90;;;;;;4995544;28;20231;-64
2022/01/28 08:31:14;;;;;;;12.30;3.87;;;4.80;99.90;;;;;;4983455;28;20201;-65
2022/01/28 08:33:39;;;;;;;15.27;3.23;;;4.90;99.90;;;;;;5001737;28;20196;-64
2022/01/28 08:36:05;;;;;;;16.40;4.07;;;4.80;99.90;;;;;;4992056;28;20295;-64
2022/01/28 08:38:37;;;;;;;12.27;3.10;;;4.80;99.90;;;;;;4994481;28;20197;-63
2022/01/28 08:41:03;;;;;;;15.10;3.33;;;4.80;99.90;;;;;;4984777;28;20634;-64
2022/01/28 08:43:28;;;;;;;21.03;5.17;;;4.80;99.90;;;;;;4990638;28;20214;-64
2022/01/28 08:45:55;;;;;;;11.47;4.07;;;4.80;99.90;;;;;;4984438;28;20201;-64
2022/01/28 08:48:21;;;;;;;13.77;3.17;;;4.80;99.90;;;;;;4984779;28;20197;-64
2022/01/28 08:50:46;;;;;;;14.87;3.23;;;4.80;99.90;;;;;;4992344;28;20201;-64
2022/01/28 08:53:13;;;;;;;12.30;3.73;;;4.90;99.90;;;;;;4991454;28;20200;-64
2022/01/28 08:55:38;;;;;;;19.43;4.10;;;4.90;99.90;;;;;;5002009;28;20265;-65
2022/01/28 08:58:06;;;;;;;9.97;2.50;;;4.90;99.90;;;;;;5000404;28;20197;-64
2022/01/28 09:00:31;;;;;;;12.23;3.67;;;4.90;99.90;;;;;;4992099;28;20574;-64
2022/01/28 09:02:57;;;;;;;27.10;4.17;;;4.90;99.90;;;;;;5002191;28;20384;-64
2022/01/28 09:05:22;;;;;;;13.97;3.30;;;4.90;99.90;;;;;;4999909;28;20568;-64
2022/01/28 09:07:48;;;;;;;17.37;3.93;;;5.00;99.90;;;;;;5001835;28;20340;-65
2022/01/28 09:10:18;;;;;;;15.10;3.10;;;5.00;99.90;;;;;;4990369;28;20220;-64
2022/01/28 09:13:37;;;;;;;17.43;3.93;;;5.00;99.90;;;;;;4996100;28;20212;-64
2022/01/28 09:15:40;;;;;;;14.77;3.53;;;5.00;99.90;;;;;;4989945;28;20216;-65
2022/01/28 09:18:07;;;;;;;13.73;3.60;;;5.10;99.90;;;;;;4995190;28;20193;-65
2022/01/28 09:20:34;;;;;;;11.60;3.73;;;5.10;99.90;;;;;;4994615;28;20200;-65
2022/01/28 09:23:00;;;;;;;14.53;3.07;;;5.00;99.90;;;;;;4984406;28;20204;-64
2022/01/28 09:25:26;;;;;;;13.20;4.63;;;5.10;99.90;;;;;;4988332;28;20299;-65
2022/01/28 09:27:53;;;;;;;13.67;2.80;;;5.10;99.90;;;;;;4984187;28;20196;-64
2022/01/28 09:30:18;;;;;;;14.53;2.83;;;5.10;99.90;;;;;;4989839;28;20219;-66
2022/01/28 09:32:44;;;;;;;13.70;3.80;;;5.10;99.90;;;;;;5001512;28;20413;-66
2022/01/28 09:35:10;;;;;;;8.30;3.07;;;5.10;99.90;;;;;;4988480;28;20203;-64
2022/01/28 09:37:35;;;;;;;18.57;3.03;;;5.30;99.90;;;;;;4989974;28;20301;-75
2022/01/28 09:40:02;;;;;;;14.20;3.17;;;5.30;99.90;;;;;;4994877;28;20620;-64
2022/01/28 09:42:31;;;;;;;18.57;3.70;;;5.30;99.90;;;;;;5003439;28;20274;-66
2022/01/28 09:44:59;;;;;;;20.33;3.83;;;5.20;99.90;;;;;;4986793;28;20239;-64
2022/01/28 09:47:24;;;;;;;11.37;3.13;;;5.30;99.90;;;;;;4992235;28;20194;-64
2022/01/28 09:49:51;;;;;;;12.73;3.03;;;5.30;99.90;;;;;;4990392;28;20282;-65
2022/01/28 09:52:16;;;;;;;13.13;3.47;;;5.40;99.90;;;;;;4992611;28;20195;-66
2022/01/28 09:54:46;;;;;;;16.87;3.97;;;5.40;99.90;;;;;;4990472;28;20204;-65
2022/01/28 09:57:11;;;;;;;17.70;4.17;;;5.40;99.90;;;;;;4990563;28;20191;-65
2022/01/28 09:59:38;;;;;;;16.83;3.77;;;5.40;99.90;;;;;;4998582;28;20554;-67
2022/01/28 10:02:04;;;;;;;17.83;4.30;;;5.50;99.90;;;;;;4992610;28;20246;-67
2022/01/28 10:04:29;;;;;;;11.47;3.07;;;5.50;99.90;;;;;;4990768;28;20192;-67
2022/01/28 10:06:56;;;;;;;16.67;3.77;;;5.50;99.90;;;;;;4995842;28;20726;-67
2022/01/28 10:09:23;;;;;;;13.43;3.43;;;5.60;99.90;;;;;;4995889;28;20221;-67
2022/01/28 10:11:53;;;;;;;9.37;3.07;;;5.60;99.90;;;;;;4973056;28;20200;-68
2022/01/28 10:14:22;;;;;;;9.60;2.90;;;5.60;99.90;;;;;;4994751;28;20200;-67
2022/01/28 10:16:56;;;;;;;12.43;3.40;;;5.60;99.90;;;;;;4993308;28;20200;-67
2022/01/28 10:19:27;;;;;;;16.17;2.93;;;5.70;99.90;;;;;;4998213;28;20225;-67
2022/01/28 10:21:53;;;;;;;13.93;3.90;;;5.60;99.90;;;;;;4980189;28;20265;-68
2022/01/28 10:24:21;;;;;;;12.37;3.73;;;5.70;99.90;;;;;;4995232;28;20287;-68
2022/01/28 10:26:55;;;;;;;11.17;3.57;;;5.70;99.90;;;;;;4985577;28;20203;-67
2022/01/28 10:29:27;;;;;;;11.13;4.13;;;5.80;99.90;;;;;;4999313;28;20196;-68
2022/01/28 10:32:10;;;;;;;10.43;3.43;;;5.80;99.90;;;;;;4987797;28;20274;-66
2022/01/28 10:34:46;;;;;;;8.83;3.07;;;5.80;99.90;;;;;;4994261;28;20200;-65
2022/01/28 10:37:24;;;;;;;10.90;2.30;;;5.90;99.90;;;;;;4992675;28;20211;-64
2022/01/28 10:39:52;;;;;;;12.80;2.93;;;6.00;99.90;;;;;;4989992;28;20213;-65
2022/01/28 10:42:33;;;;;;;12.83;3.33;;;6.20;99.90;;;;;;4963554;28;20237;-65
2022/01/28 10:45:00;;;;;;;10.37;3.40;;;6.20;99.90;;;;;;4987098;28;20262;-65
2022/01/28 10:47:43;;;;;;;14.23;3.80;;;6.20;99.90;;;;;;4999303;28;20200;-64
2022/01/28 10:50:15;;;;;;;11.60;2.93;;;6.20;99.90;;;;;;4983745;28;20209;-65
2022/01/28 10:52:41;;;;;;;11.27;3.03;;;6.20;99.90;;;;;;4972450;28;20694;-65
2022/01/28 10:55:14;;;;;;;16.17;4.30;;;6.20;99.90;;;;;;4992899;28;20292;-64
2022/01/28 10:57:39;;;;;;;8.70;3.20;;;6.20;99.90;;;;;;4993648;28;20236;-65
2022/01/28 11:00:06;;;;;;;7.10;2.63;;;6.20;99.90;;;;;;4988337;28;20245;-65
2022/01/28 11:02:31;;;;;;;10.83;3.50;;;6.40;99.90;;;;;;4990792;28;20217;-65
2022/01/28 11:04:58;;;;;;;15.53;3.60;;;6.50;99.90;;;;;;4991189;28;20371;-66
2022/01/28 11:07:27;;;;;;;14.00;2.93;;;6.50;99.90;;;;;;4983345;28;20229;-66
2022/01/28 11:09:52;;;;;;;11.57;2.90;;;6.80;99.90;;;;;;4995402;28;20200;-65
2022/01/28 11:12:18;;;;;;;10.17;3.30;;;6.90;99.90;;;;;;4986147;28;20559;-65
2022/01/28 11:14:44;;;;;;;12.33;3.37;;;7.00;99.90;;;;;;4984251;28;20308;-65
2022/01/28 11:17:11;;;;;;;11.13;3.60;;;7.10;99.90;;;;;;4993555;28;20195;-65
2022/01/28 11:19:39;;;;;;;10.67;2.63;;;7.10;99.90;;;;;;4992890;28;20201;-65
2022/01/28 11:22:24;;;;;;;7.70;2.47;;;7.30;99.90;;;;;;4984283;28;20205;-65
2022/01/28 11:25:15;;;;;;;15.97;3.87;;;7.50;99.90;;;;;;4984777;28;20696;-66
2022/01/28 11:27:41;;;;;;;7.47;3.33;;;7.70;99.90;;;;;;4971413;28;20259;-66
2022/01/28 11:30:28;;;;;;;6.07;2.87;;;7.90;99.90;;;;;;4990124;28;20284;-65
2022/01/28 11:33:01;;;;;;;8.43;2.43;;;7.80;99.90;;;;;;4991065;28;20189;-66
2022/01/28 11:35:52;;;;;;;13.07;2.53;;;7.30;99.90;;;;;;4989779;28;20207;-64
2022/01/28 11:38:24;;;;;;;9.03;2.90;;;7.00;99.90;;;;;;4989803;28;20192;-65
2022/01/28 11:41:05;;;;;;;13.87;3.27;;;6.80;99.90;;;;;;4988659;28;20221;-64
2022/01/28 11:43:33;;;;;;;12.57;3.13;;;6.80;99.90;;;;;;4987600;28;20209;-64
2022/01/28 11:46:19;;;;;;;13.70;3.17;;;6.70;99.90;;;;;;4991760;28;20188;-65
2022/01/28 11:48:57;;;;;;;18.37;3.30;;;6.70;99.90;;;;;;4989564;28;20319;-64
2022/01/28 11:51:32;;;;;;;12.00;3.30;;;6.60;99.90;;;;;;4992611;28;20189;-63
2022/01/28 11:54:02;;;;;;;11.33;2.63;;;6.60;99.90;;;;;;4988833;28;20200;-66
2022/01/28 11:56:31;;;;;;;10.97;2.87;;;6.50;99.90;;;;;;4990663;28;20185;-64
2022/01/28 11:58:59;;;;;;;11.23;3.17;;;6.40;99.90;;;;;;4989197;28;20204;-65
2022/01/28 12:01:32;;;;;;;11.10;2.60;;;6.60;99.90;;;;;;4995191;28;20200;-65
2022/01/28 12:04:26;;;;;;;8.73;2.43;;;6.40;99.90;;;;;;4996823;28;20209;-64
2022/01/28 12:07:00;;;;;;;8.97;2.47;;;6.50;99.90;;;;;;4993852;28;20196;-65
2022/01/28 12:09:27;;;;;;;8.37;1.83;;;6.60;99.90;;;;;;4995563;28;20204;-65
2022/01/28 12:11:53;;;;;;;8.93;2.00;;;7.00;99.90;;;;;;4991801;28;20347;-65
2022/01/28 12:14:39;;;;;;;9.43;1.87;;;7.10;99.90;;;;;;4993495;28;20243;-66
2022/01/28 12:17:30;;;;;;;9.57;2.47;;;7.50;99.90;;;;;;4993603;28;20193;-64
2022/01/28 12:20:15;;;;;;;3.83;2.17;;;8.30;99.90;;;;;;4996432;28;20678;-68
2022/01/28 12:22:59;;;;;;;9.30;2.40;;;8.80;99.90;;;;;;4991206;28;20605;-75
2022/01/28 12:25:36;;;;;;;11.37;2.67;;;8.50;99.90;;;;;;4993565;28;20667;-74
2022/01/28 12:28:30;;;;;;;7.80;2.20;;;8.00;99.90;;;;;;4992776;28;20841;-74
2022/01/28 12:31:24;;;;;;;12.90;2.57;;;7.50;99.90;;;;;;4996114;28;20236;-75
2022/01/28 12:33:54;;;;;;;10.33;2.23;;;7.30;99.90;;;;;;4996907;28;20220;-74
2022/01/28 12:36:32;;;;;;;6.07;2.37;;;7.10;99.90;;;;;;4997222;28;20331;-74
2022/01/28 12:39:09;;;;;;;11.27;2.90;;;7.10;99.90;;;;;;5034473;28;20307;-74
2022/01/28 12:41:48;;;;;;;7.93;3.03;;;7.10;99.90;;;;;;4994538;28;20232;-72
2022/01/28 12:44:16;;;;;;;9.20;2.37;;;7.00;99.90;;;;;;4989878;28;20188;-66
2022/01/28 12:46:55;;;;;;;8.90;2.53;;;7.20;99.90;;;;;;4994289;28;20185;-67
2022/01/28 12:49:25;;;;;;;8.83;2.40;;;7.30;99.90;;;;;;5009787;28;20645;-67
2022/01/28 12:51:54;;;;;;;4.07;2.00;;;7.30;99.90;;;;;;4982019;28;20573;-66
2022/01/28 12:54:29;;;;;;;11.97;2.80;;;7.50;99.90;;;;;;4993646;28;20786;-66
2022/01/28 12:56:55;;;;;;;9.43;2.50;;;7.50;99.90;;;;;;4986815;28;20200;-67
2022/01/28 12:59:21;;;;;;;9.30;2.13;;;7.50;99.90;;;;;;4984612;28;20719;-66
2022/01/28 13:01:54;;;;;;;9.07;2.17;;;7.70;99.90;;;;;;4988553;28;20285;-66
2022/01/28 13:04:22;;;;;;;9.93;2.87;;;7.80;99.90;;;;;;4986591;28;20215;-73
2022/01/28 13:09:18;;;;;;;9.67;5.27;;;8.20;99.90;;;;;;4988230;28;20193;-66
2022/01/28 13:11:49;;;;;;;7.17;2.03;;;8.00;99.90;;;;;;4999268;28;20210;-66
2022/01/28 13:14:19;;;;;;;5.53;2.73;;;8.20;99.90;;;;;;4995436;28;20268;-65
2022/01/28 13:16:46;;;;;;;9.97;6.33;;;8.40;99.90;;;;;;4996714;28;20772;-74
2022/01/28 13:19:13;;;;;;;9.27;2.23;;;8.20;99.90;;;;;;4990856;28;20201;-78
2022/01/28 13:21:41;;;;;;;6.00;1.93;;;8.00;99.90;;;;;;4992943;28;20223;-74
2022/01/28 13:24:22;;;;;;;8.50;2.70;;;7.90;99.90;;;;;;4991438;28;20204;-78
2022/01/28 13:27:05;;;;;;;10.20;3.07;;;7.70;99.90;;;;;;5017883;28;20188;-71
2022/01/28 13:29:41;;;;;;;6.27;1.97;;;7.90;99.90;;;;;;4990879;28;20240;-72
2022/01/28 13:32:08;;;;;;;11.63;2.93;;;8.10;99.90;;;;;;4968281;28;20624;-74
2022/01/28 13:34:49;;;;;;;12.47;2.40;;;8.30;99.90;;;;;;4991314;28;20596;-73
2022/01/28 13:37:38;;;;;;;12.30;5.53;;;8.40;99.90;;;;;;4998469;28;20705;-72
2022/01/28 13:40:24;;;;;;;23.90;13.10;;;8.90;99.90;;;;;;4990712;28;20195;-73
2022/01/28 13:42:59;;;;;;;10.47;6.27;;;9.40;99.30;;;;;;4972711;28;20224;-73
2022/01/28 13:45:49;;;;;;;21.20;10.17;;;9.60;98.60;;;;;;4991584;28;20191;-73
2022/01/28 13:48:22;;;;;;;4.77;2.00;;;9.60;97.90;;;;;;4993331;28;20604;-71
2022/01/28 13:50:52;;;;;;;6.40;2.27;;;9.00;98.70;;;;;;5003225;28;20260;-71
2022/01/28 13:56:02;;;;;;;7.10;2.37;;;8.20;99.70;;;;;;5011821;28;20192;-72
2022/01/28 13:58:28;;;;;;;6.30;2.40;;;7.90;99.90;;;;;;4985663;28;20196;-72
2022/01/28 14:00:54;;;;;;;8.27;1.70;;;7.80;99.90;;;;;;4999993;28;20217;-72
2022/01/28 14:03:25;;;;;;;5.60;1.90;;;7.60;99.90;;;;;;4991719;28;20293;-74
2022/01/28 14:05:59;;;;;;;6.70;1.60;;;7.30;99.90;;;;;;4987704;28;20188;-77
2022/01/28 14:08:48;;;;;;;6.80;2.33;;;7.20;99.90;;;;;;4994502;28;20795;-77
2022/01/28 14:11:30;;;;;;;4.83;2.23;;;7.20;99.90;;;;;;4971197;28;20292;-75
2022/01/28 14:14:31;;;;;;;6.07;2.67;;;7.10;99.90;;;;;;4994039;28;20282;-72
2022/01/28 14:17:00;;;;;;;7.80;2.40;;;7.20;99.90;;;;;;4994900;28;20196;-73
2022/01/28 14:19:31;;;;;;;8.77;2.30;;;7.10;99.90;;;;;;4994017;28;20195;-73
2022/01/28 14:21:57;;;;;;;4.63;1.60;;;7.00;99.90;;;;;;5002429;28;20520;-73
2022/01/28 14:24:26;;;;;;;5.70;1.83;;;7.00;99.90;;;;;;4994616;28;20254;-73
2022/01/28 14:26:59;;;;;;;7.47;1.53;;;7.00;99.90;;;;;;4992350;28;20230;-73